sensor_id;sensor_type;location;lat;lon;timestamp;pressure;altitude;pressure_sealevel;temperature;humidity
18784;BME280;9520;50.954;6.968;2024-02-28T00:00:17;101382.41;;;11.80;49.50
18784;BME280;9520;50.954;6.968;2024-02-28T00:00:39;101383.25;;;11.85;49.45
18784;BME280;9520;50.954;6.968;2024-02-28T00:01:01;101370.94;;;11.80;49.32
18784;BME280;9520;50.954;6.968;2024-02-28T00:01:23;101387.59;;;11.92;49.32
18784;BME280;9520;50.954;6.968;2024-02-28T00:01:49;101378.84;;;11.86;49.45
18784;BME280;9520;50.954;6.968;2024-02-28T00:02:11;101391.06;;;11.96;49.33
18784;BME280;9520;50.954;6.968;2024-02-28T00:02:32;101388.44;;;11.94;49.27
18784;BME280;9520;50.954;6.968;2024-02-28T00:02:54;101389.34;;;11.90;49.34
18784;BME280;9520;50.954;6.968;2024-02-28T00:03:16;101390.25;;;11.91;49.34
18784;BME280;9520;50.954;6.968;2024-02-28T00:03:37;101386.63;;;11.99;49.34
18784;BME280;9520;50.954;6.968;2024-02-28T00:04:00;101385.78;;;11.97;49.23
18784;BME280;9520;50.954;6.968;2024-02-28T00:04:22;101384.84;;;12.00;49.31
18784;BME280;9520;50.954;6.968;2024-02-28T00:04:43;101382.25;;;11.98;49.43
18784;BME280;9520;50.954;6.968;2024-02-28T00:05:06;101393.69;;;12.00;49.30
18784;BME280;9520;50.954;6.968;2024-02-28T00:05:28;101390.16;;;12.01;49.22
18784;BME280;9520;50.954;6.968;2024-02-28T00:05:50;101378.78;;;11.93;49.40
18784;BME280;9520;50.954;6.968;2024-02-28T00:06:15;101380.47;;;11.99;49.23
18784;BME280;9520;50.954;6.968;2024-02-28T00:06:38;101370.03;;;11.85;49.04
18784;BME280;9520;50.954;6.968;2024-02-28T00:07:01;101384.91;;;11.97;49.16
18784;BME280;9520;50.954;6.968;2024-02-28T00:07:22;101385.00;;;11.88;49.23
18784;BME280;9520;50.954;6.968;2024-02-28T00:07:44;101378.81;;;11.89;49.14
18784;BME280;9520;50.954;6.968;2024-02-28T00:08:07;101388.44;;;11.94;49.07
18784;BME280;9520;50.954;6.968;2024-02-28T00:08:30;101391.97;;;11.96;49.16
18784;BME280;9520;50.954;6.968;2024-02-28T00:08:51;101391.97;;;11.96;49.28
18784;BME280;9520;50.954;6.968;2024-02-28T00:09:15;101384.06;;;11.92;49.32
18784;BME280;9520;50.954;6.968;2024-02-28T00:09:37;101376.19;;;11.86;49.41
18784;BME280;9520;50.954;6.968;2024-02-28T00:09:59;101384.94;;;11.92;49.29
18784;BME280;9520;50.954;6.968;2024-02-28T00:10:20;101398.13;;;11.95;49.32
18784;BME280;9520;50.954;6.968;2024-02-28T00:10:44;101396.34;;;11.97;49.40
18784;BME280;9520;50.954;6.968;2024-02-28T00:11:06;101391.94;;;11.98;49.19
18784;BME280;9520;50.954;6.968;2024-02-28T00:11:28;101390.16;;;12.01;49.15
18784;BME280;9520;50.954;6.968;2024-02-28T00:11:49;101401.59;;;12.03;49.33
18784;BME280;9520;50.954;6.968;2024-02-28T00:12:11;101396.31;;;12.03;49.36
18784;BME280;9520;50.954;6.968;2024-02-28T00:12:34;101388.44;;;11.97;49.39
18784;BME280;9520;50.954;6.968;2024-02-28T00:12:56;101395.44;;;12.03;49.47
18784;BME280;9520;50.954;6.968;2024-02-28T00:13:18;101396.22;;;12.09;49.65
18784;BME280;9520;50.954;6.968;2024-02-28T00:13:41;101406.81;;;12.09;49.63
18784;BME280;9520;50.954;6.968;2024-02-28T00:14:03;101400.63;;;12.09;49.42
18784;BME280;9520;50.954;6.968;2024-02-28T00:14:26;101398.88;;;12.11;49.49
18784;BME280;9520;50.954;6.968;2024-02-28T00:14:47;101402.38;;;12.13;49.47
18784;BME280;9520;50.954;6.968;2024-02-28T00:15:09;101397.06;;;12.15;49.40
18784;BME280;9520;50.954;6.968;2024-02-28T00:15:32;101398.81;;;12.16;49.36
18784;BME280;9520;50.954;6.968;2024-02-28T00:15:54;101397.97;;;12.12;49.45
18784;BME280;9520;50.954;6.968;2024-02-28T00:16:17;101410.31;;;12.13;49.63
18784;BME280;9520;50.954;6.968;2024-02-28T00:16:40;101401.47;;;12.14;49.53
18784;BME280;9520;50.954;6.968;2024-02-28T00:17:01;101398.81;;;12.16;49.67
18784;BME280;9520;50.954;6.968;2024-02-28T00:17:23;101403.22;;;12.18;49.51
18784;BME280;9520;50.954;6.968;2024-02-28T00:17:45;101397.88;;;12.20;49.47
18784;BME280;9520;50.954;6.968;2024-02-28T00:18:07;101409.28;;;12.25;49.31
18784;BME280;9520;50.954;6.968;2024-02-28T00:18:30;101385.53;;;12.19;49.23
18784;BME280;9520;50.954;6.968;2024-02-28T00:18:52;101402.25;;;12.27;49.24
18784;BME280;9520;50.954;6.968;2024-02-28T00:19:14;101411.00;;;12.29;49.39
18784;BME280;9520;50.954;6.968;2024-02-28T00:19:36;101406.59;;;12.29;49.21
18784;BME280;9520;50.954;6.968;2024-02-28T00:19:58;101372.38;;;12.16;49.15
18784;BME280;9520;50.954;6.968;2024-02-28T00:20:20;101396.00;;;12.32;49.27
18784;BME280;9520;50.954;6.968;2024-02-28T00:20:44;101394.28;;;12.28;49.33
18784;BME280;9520;50.954;6.968;2024-02-28T00:21:05;101405.66;;;12.38;49.18
18784;BME280;9520;50.954;6.968;2024-02-28T00:21:27;101401.19;;;12.40;49.00
18784;BME280;9520;50.954;6.968;2024-02-28T00:21:49;101404.78;;;12.37;49.02
18784;BME280;9520;50.954;6.968;2024-02-28T00:22:12;101386.25;;;12.36;49.03
18784;BME280;9520;50.954;6.968;2024-02-28T00:22:35;101400.31;;;12.41;49.04
18784;BME280;9520;50.954;6.968;2024-02-28T00:22:57;101393.25;;;12.40;49.04
18784;BME280;9520;50.954;6.968;2024-02-28T00:23:19;101403.84;;;12.43;48.85
18784;BME280;9520;50.954;6.968;2024-02-28T00:23:41;101404.72;;;12.40;49.02
18784;BME280;9520;50.954;6.968;2024-02-28T00:24:03;101372.31;;;12.23;48.98
18784;BME280;9520;50.954;6.968;2024-02-28T00:24:25;101406.47;;;12.43;49.02
18784;BME280;9520;50.954;6.968;2024-02-28T00:24:47;101338.03;;;12.11;48.95
18784;BME280;9520;50.954;6.968;2024-02-28T00:25:10;101403.78;;;12.46;48.86
18784;BME280;9520;50.954;6.968;2024-02-28T00:25:33;101365.22;;;12.24;49.00
18784;BME280;9520;50.954;6.968;2024-02-28T00:25:54;101399.38;;;12.48;48.97
18784;BME280;9520;50.954;6.968;2024-02-28T00:26:16;101404.66;;;12.46;48.88
18784;BME280;9520;50.954;6.968;2024-02-28T00:26:42;101402.00;;;12.48;48.99
18784;BME280;9520;50.954;6.968;2024-02-28T00:27:03;101404.66;;;12.48;48.91
18784;BME280;9520;50.954;6.968;2024-02-28T00:27:25;101402.91;;;12.47;49.03
18784;BME280;9520;50.954;6.968;2024-02-28T00:27:47;101403.84;;;12.43;48.85
18784;BME280;9520;50.954;6.968;2024-02-28T00:28:09;101409.09;;;12.44;49.00
18784;BME280;9520;50.954;6.968;2024-02-28T00:28:31;101402.03;;;12.45;48.89
18784;BME280;9520;50.954;6.968;2024-02-28T00:28:53;101401.13;;;12.46;48.92
18784;BME280;9520;50.954;6.968;2024-02-28T00:29:15;101397.59;;;12.47;48.77
18784;BME280;9520;50.954;6.968;2024-02-28T00:29:36;101394.13;;;12.40;48.92
18784;BME280;9520;50.954;6.968;2024-02-28T00:29:58;101406.38;;;12.50;48.80
18784;BME280;9520;50.954;6.968;2024-02-28T00:30:20;101399.31;;;12.52;48.69
18784;BME280;9520;50.954;6.968;2024-02-28T00:30:42;101401.91;;;12.55;48.81
18784;BME280;9520;50.954;6.968;2024-02-28T00:31:04;101404.63;;;12.49;48.83
18784;BME280;9520;50.954;6.968;2024-02-28T00:31:26;101406.38;;;12.52;48.83
18784;BME280;9520;50.954;6.968;2024-02-28T00:31:47;101405.44;;;12.56;48.65
18784;BME280;9520;50.954;6.968;2024-02-28T00:32:09;101411.63;;;12.55;48.62
18784;BME280;9520;50.954;6.968;2024-02-28T00:32:31;101408.97;;;12.55;48.89
18784;BME280;9520;50.954;6.968;2024-02-28T00:32:53;101384.41;;;12.44;48.69
18784;BME280;9520;50.954;6.968;2024-02-28T00:33:15;101410.72;;;12.58;48.78
18784;BME280;9520;50.954;6.968;2024-02-28T00:33:37;101408.06;;;12.58;48.56
18784;BME280;9520;50.954;6.968;2024-02-28T00:33:59;101415.97;;;12.61;48.66
18784;BME280;9520;50.954;6.968;2024-02-28T00:34:20;101411.56;;;12.61;48.42
18784;BME280;9520;50.954;6.968;2024-02-28T00:34:42;101417.69;;;12.63;48.50
18784;BME280;9520;50.954;6.968;2024-02-28T00:35:06;101412.38;;;12.63;48.54
18784;BME280;9520;50.954;6.968;2024-02-28T00:35:30;101407.16;;;12.59;48.52
18784;BME280;9520;50.954;6.968;2024-02-28T00:35:52;101408.03;;;12.59;48.40
18784;BME280;9520;50.954;6.968;2024-02-28T00:36:15;101418.56;;;12.64;48.42
18784;BME280;9520;50.954;6.968;2024-02-28T00:36:36;101417.72;;;12.60;48.41
18784;BME280;9520;50.954;6.968;2024-02-28T00:37:17;101401.03;;;12.55;48.51
18784;BME280;9520;50.954;6.968;2024-02-28T00:37:39;101420.38;;;12.59;48.51
18784;BME280;9520;50.954;6.968;2024-02-28T00:38:01;101419.53;;;12.57;48.58
18784;BME280;9520;50.954;6.968;2024-02-28T00:38:23;101406.44;;;12.46;48.82
18784;BME280;9520;50.954;6.968;2024-02-28T00:38:45;101415.19;;;12.52;48.61
18784;BME280;9520;50.954;6.968;2024-02-28T00:39:07;101423.97;;;12.54;48.68
18784;BME280;9520;50.954;6.968;2024-02-28T00:39:29;101420.47;;;12.52;48.78
18784;BME280;9520;50.954;6.968;2024-02-28T00:39:51;101395.06;;;12.38;48.82
18784;BME280;9520;50.954;6.968;2024-02-28T00:40:13;101413.44;;;12.50;48.72
18784;BME280;9520;50.954;6.968;2024-02-28T00:40:35;101422.25;;;12.50;48.58
18784;BME280;9520;50.954;6.968;2024-02-28T00:40:56;101419.59;;;12.50;48.67
18784;BME280;9520;50.954;6.968;2024-02-28T00:41:18;101417.84;;;12.51;48.67
18784;BME280;9520;50.954;6.968;2024-02-28T00:41:40;101381.91;;;12.29;48.63
18784;BME280;9520;50.954;6.968;2024-02-28T00:42:02;101420.50;;;12.51;48.53
18784;BME280;9520;50.954;6.968;2024-02-28T00:42:25;101417.84;;;12.52;48.54
18784;BME280;9520;50.954;6.968;2024-02-28T00:42:47;101424.91;;;12.52;48.51
18784;BME280;9520;50.954;6.968;2024-02-28T00:43:09;101423.09;;;12.54;48.51
18784;BME280;9520;50.954;6.968;2024-02-28T00:43:31;101415.13;;;12.55;48.59
18784;BME280;9520;50.954;6.968;2024-02-28T00:43:53;101419.56;;;12.55;48.33
18784;BME280;9520;50.954;6.968;2024-02-28T00:44:15;101422.19;;;12.55;48.43
18784;BME280;9520;50.954;6.968;2024-02-28T00:44:37;101423.06;;;12.57;48.32
18784;BME280;9520;50.954;6.968;2024-02-28T00:44:58;101416.03;;;12.56;48.33
18784;BME280;9520;50.954;6.968;2024-02-28T00:45:20;101419.59;;;12.52;48.19
18784;BME280;9520;50.954;6.968;2024-02-28T00:45:42;101415.19;;;12.51;48.36
18784;BME280;9520;50.954;6.968;2024-02-28T00:46:05;101419.56;;;12.55;48.39
18784;BME280;9520;50.954;6.968;2024-02-28T00:46:32;101417.78;;;12.54;48.47
18784;BME280;9520;50.954;6.968;2024-02-28T00:46:54;101423.13;;;12.52;48.22
18784;BME280;9520;50.954;6.968;2024-02-28T00:47:15;101420.50;;;12.49;48.50
18784;BME280;9520;50.954;6.968;2024-02-28T00:47:37;101408.25;;;12.42;48.37
18784;BME280;9520;50.954;6.968;2024-02-28T00:48:01;101429.31;;;12.53;48.68
18784;BME280;9520;50.954;6.968;2024-02-28T00:48:23;101416.91;;;12.53;48.47
18784;BME280;9520;50.954;6.968;2024-02-28T00:48:45;101418.72;;;12.53;48.54
18784;BME280;9520;50.954;6.968;2024-02-28T00:49:07;101419.59;;;12.50;48.61
18784;BME280;9520;50.954;6.968;2024-02-28T00:49:28;101413.50;;;12.45;48.43
18784;BME280;9520;50.954;6.968;2024-02-28T00:49:51;101387.19;;;12.33;48.54
18784;BME280;9520;50.954;6.968;2024-02-28T00:50:12;101414.31;;;12.50;48.34
18784;BME280;9520;50.954;6.968;2024-02-28T00:50:34;101417.84;;;12.51;48.60
18784;BME280;9520;50.954;6.968;2024-02-28T00:50:56;101410.84;;;12.47;48.37
18784;BME280;9520;50.954;6.968;2024-02-28T00:51:17;101417.84;;;12.51;48.59
18784;BME280;9520;50.954;6.968;2024-02-28T00:51:40;101426.66;;;12.50;48.63
18784;BME280;9520;50.954;6.968;2024-02-28T00:52:02;101413.47;;;12.47;48.67
18784;BME280;9520;50.954;6.968;2024-02-28T00:52:25;101408.19;;;12.45;48.88
18784;BME280;9520;50.954;6.968;2024-02-28T00:52:47;101422.25;;;12.50;48.86
18784;BME280;9520;50.954;6.968;2024-02-28T00:53:09;101414.38;;;12.44;48.61
18784;BME280;9520;50.954;6.968;2024-02-28T00:53:31;101411.72;;;12.46;48.80
18784;BME280;9520;50.954;6.968;2024-02-28T00:53:53;101415.19;;;12.49;48.81
18784;BME280;9520;50.954;6.968;2024-02-28T00:54:15;101413.44;;;12.50;48.74
18784;BME280;9520;50.954;6.968;2024-02-28T00:54:37;101406.44;;;12.47;48.75
18784;BME280;9520;50.954;6.968;2024-02-28T00:54:59;101411.63;;;12.53;48.74
18784;BME280;9520;50.954;6.968;2024-02-28T00:55:21;101389.72;;;12.42;48.71
18784;BME280;9520;50.954;6.968;2024-02-28T00:55:43;101410.72;;;12.56;48.50
18784;BME280;9520;50.954;6.968;2024-02-28T00:56:06;101414.22;;;12.58;48.51
18784;BME280;9520;50.954;6.968;2024-02-28T00:56:27;101401.03;;;12.55;48.43
18784;BME280;9520;50.954;6.968;2024-02-28T00:56:49;101409.78;;;12.60;48.49
18784;BME280;9520;50.954;6.968;2024-02-28T00:57:11;101411.56;;;12.60;48.54
18784;BME280;9520;50.954;6.968;2024-02-28T00:57:32;101414.19;;;12.61;48.37
18784;BME280;9520;50.954;6.968;2024-02-28T00:57:55;101415.97;;;12.61;48.42
18784;BME280;9520;50.954;6.968;2024-02-28T00:58:17;101414.19;;;12.61;48.30
18784;BME280;9520;50.954;6.968;2024-02-28T00:58:38;101408.03;;;12.59;48.40
18784;BME280;9520;50.954;6.968;2024-02-28T00:59:00;101416.78;;;12.66;48.31
18784;BME280;9520;50.954;6.968;2024-02-28T00:59:22;101419.44;;;12.67;48.22
18784;BME280;9520;50.954;6.968;2024-02-28T00:59:44;101424.72;;;12.67;48.09
18784;BME280;9520;50.954;6.968;2024-02-28T01:00:07;101401.91;;;12.57;48.14
18784;BME280;9520;50.954;6.968;2024-02-28T01:00:31;101414.13;;;12.66;48.10
18784;BME280;9520;50.954;6.968;2024-02-28T01:00:53;101405.38;;;12.59;48.10
18784;BME280;9520;50.954;6.968;2024-02-28T01:01:15;101416.78;;;12.64;48.10
18784;BME280;9520;50.954;6.968;2024-02-28T01:01:38;101421.19;;;12.67;48.00
18784;BME280;9520;50.954;6.968;2024-02-28T01:02:00;101420.31;;;12.65;48.16
18784;BME280;9520;50.954;6.968;2024-02-28T01:02:37;101422.97;;;12.63;48.30
18784;BME280;9520;50.954;6.968;2024-02-28T01:03:39;101386.16;;;12.45;48.11
18784;BME280;9520;50.954;6.968;2024-02-28T01:04:41;101424.72;;;12.64;48.15
18784;BME280;9520;50.954;6.968;2024-02-28T01:06:20;101415.03;;;12.63;48.45
18784;BME280;9520;50.954;6.968;2024-02-28T01:07:45;101415.09;;;12.60;48.54
18784;BME280;9520;50.954;6.968;2024-02-28T01:09:27;101420.53;;;12.46;48.42
18784;BME280;9520;50.954;6.968;2024-02-28T01:09:54;101418.94;;;12.29;48.72
18784;BME280;9520;50.954;6.968;2024-02-28T01:10:18;101425.16;;;12.25;48.98
18784;BME280;9520;50.954;6.968;2024-02-28T01:10:43;101416.44;;;12.18;48.90
18784;BME280;9520;50.954;6.968;2024-02-28T01:11:08;101379.88;;;11.62;49.21
18784;BME280;9520;50.954;6.968;2024-02-28T01:11:37;101422.97;;;11.76;49.70
18784;BME280;9520;50.954;6.968;2024-02-28T01:12:13;101372.03;;;11.53;49.85
18784;BME280;9520;50.954;6.968;2024-02-28T01:12:48;101415.88;;;11.81;49.88
18784;BME280;9520;50.954;6.968;2024-02-28T01:13:13;101402.72;;;11.75;49.81
18784;BME280;9520;50.954;6.968;2024-02-28T01:13:40;101394.78;;;11.75;49.68
18784;BME280;9520;50.954;6.968;2024-02-28T01:14:11;101355.22;;;11.61;49.85
18784;BME280;9520;50.954;6.968;2024-02-28T01:14:39;101419.22;;;12.00;49.90
18784;BME280;9520;50.954;6.968;2024-02-28T01:15:27;101413.09;;;11.95;49.92
18784;BME280;9520;50.954;6.968;2024-02-28T01:15:57;101365.75;;;11.74;49.80
18784;BME280;9520;50.954;6.968;2024-02-28T01:16:25;101413.88;;;12.07;49.83
18784;BME280;9520;50.954;6.968;2024-02-28T01:16:53;101406.88;;;12.03;49.81
18784;BME280;9520;50.954;6.968;2024-02-28T01:17:23;101424.38;;;12.17;49.81
18784;BME280;9520;50.954;6.968;2024-02-28T01:17:57;101395.38;;;12.04;49.73
18784;BME280;9520;50.954;6.968;2024-02-28T01:18:24;101306.84;;;11.56;49.68
18784;BME280;9520;50.954;6.968;2024-02-28T01:18:56;101371.69;;;11.95;49.67
18784;BME280;9520;50.954;6.968;2024-02-28T01:19:25;101370.81;;;11.98;49.45
18784;BME280;9520;50.954;6.968;2024-02-28T01:19:48;101424.22;;;12.30;49.38
18784;BME280;9520;50.954;6.968;2024-02-28T01:20:12;101415.38;;;12.34;49.45
18784;BME280;9520;50.954;6.968;2024-02-28T01:21:15;101420.66;;;12.37;49.30
18784;BME280;9520;50.954;6.968;2024-02-28T01:21:38;101416.25;;;12.36;49.34
18784;BME280;9520;50.954;6.968;2024-02-28T01:22:00;101409.19;;;12.37;49.14
18784;BME280;9520;50.954;6.968;2024-02-28T01:22:22;101407.41;;;12.37;49.32
18784;BME280;9520;50.954;6.968;2024-02-28T01:22:45;101408.25;;;12.39;49.50
18784;BME280;9520;50.954;6.968;2024-02-28T01:23:08;101416.19;;;12.41;49.31
18784;BME280;9520;50.954;6.968;2024-02-28T01:23:30;101403.84;;;12.41;49.14
18784;BME280;9520;50.954;6.968;2024-02-28T01:23:52;101406.47;;;12.41;49.04
18784;BME280;9520;50.954;6.968;2024-02-28T01:24:14;101404.69;;;12.43;48.98
18784;BME280;9520;50.954;6.968;2024-02-28T01:24:37;101405.59;;;12.42;48.92
18784;BME280;9520;50.954;6.968;2024-02-28T01:24:59;101402.94;;;12.42;48.92
18784;BME280;9520;50.954;6.968;2024-02-28T01:25:20;101402.09;;;12.39;48.92
18784;BME280;9520;50.954;6.968;2024-02-28T01:25:53;101397.72;;;12.36;49.07
18784;BME280;9520;50.954;6.968;2024-02-28T01:26:15;101402.09;;;12.39;49.05
18784;BME280;9520;50.954;6.968;2024-02-28T01:26:38;101395.09;;;12.35;48.99
18784;BME280;9520;50.954;6.968;2024-02-28T01:26:59;101403.06;;;12.32;48.96
18784;BME280;9520;50.954;6.968;2024-02-28T01:27:21;101408.47;;;12.21;49.27
18784;BME280;9520;50.954;6.968;2024-02-28T01:27:42;101408.56;;;12.14;49.57
18784;BME280;9520;50.954;6.968;2024-02-28T01:28:04;101400.63;;;12.14;49.59
18784;BME280;9520;50.954;6.968;2024-02-28T01:28:26;101389.28;;;11.99;49.68
18784;BME280;9520;50.954;6.968;2024-02-28T01:28:49;101403.31;;;12.07;49.58
18784;BME280;9520;50.954;6.968;2024-02-28T01:29:11;101402.53;;;11.98;49.75
18784;BME280;9520;50.954;6.968;2024-02-28T01:29:33;101394.66;;;11.92;49.90
18784;BME280;9520;50.954;6.968;2024-02-28T01:29:55;101401.66;;;11.94;49.77
18784;BME280;9520;50.954;6.968;2024-02-28T01:30:16;101399.03;;;11.93;49.91
18784;BME280;9520;50.954;6.968;2024-02-28T01:30:40;101392.84;;;11.95;49.88
18784;BME280;9520;50.954;6.968;2024-02-28T01:31:02;101399.84;;;11.99;49.77
18784;BME280;9520;50.954;6.968;2024-02-28T01:31:24;101410.41;;;12.02;49.60
18784;BME280;9520;50.954;6.968;2024-02-28T01:31:45;101398.97;;;12.00;49.84
18784;BME280;9520;50.954;6.968;2024-02-28T01:32:07;101405.09;;;12.04;49.75
18784;BME280;9520;50.954;6.968;2024-02-28T01:32:30;101408.59;;;12.07;49.86
18784;BME280;9520;50.954;6.968;2024-02-28T01:32:52;101403.28;;;12.09;49.90
18784;BME280;9520;50.954;6.968;2024-02-28T01:33:13;101406.75;;;12.14;50.08
18784;BME280;9520;50.954;6.968;2024-02-28T01:33:35;101405.88;;;12.17;49.92
18784;BME280;9520;50.954;6.968;2024-02-28T01:33:57;101404.06;;;12.19;49.90
18784;BME280;9520;50.954;6.968;2024-02-28T01:34:19;101405.81;;;12.20;49.83
18784;BME280;9520;50.954;6.968;2024-02-28T01:34:41;101400.53;;;12.21;49.96
18784;BME280;9520;50.954;6.968;2024-02-28T01:35:03;101404.94;;;12.22;49.99
18784;BME280;9520;50.954;6.968;2024-02-28T01:35:25;101404.00;;;12.25;49.78
18784;BME280;9520;50.954;6.968;2024-02-28T01:35:47;101400.47;;;12.26;49.72
18784;BME280;9520;50.954;6.968;2024-02-28T01:36:11;101404.00;;;12.25;49.33
18784;BME280;9520;50.954;6.968;2024-02-28T01:36:32;101400.47;;;12.26;49.44
18784;BME280;9520;50.954;6.968;2024-02-28T01:36:55;101396.06;;;12.28;49.43
18784;BME280;9520;50.954;6.968;2024-02-28T01:37:17;101402.28;;;12.22;49.46
18784;BME280;9520;50.954;6.968;2024-02-28T01:37:38;101393.47;;;12.20;49.58
18784;BME280;9520;50.954;6.968;2024-02-28T01:38:01;101399.66;;;12.19;49.74
18784;BME280;9520;50.954;6.968;2024-02-28T01:38:23;101403.22;;;12.15;49.67
18784;BME280;9520;50.954;6.968;2024-02-28T01:38:48;101394.41;;;12.18;49.42
18784;BME280;9520;50.954;6.968;2024-02-28T01:39:09;101393.56;;;12.13;49.55
18784;BME280;9520;50.954;6.968;2024-02-28T01:39:31;101398.78;;;12.19;49.59
18784;BME280;9520;50.954;6.968;2024-02-28T01:39:53;101400.53;;;12.21;49.57
18784;BME280;9520;50.954;6.968;2024-02-28T01:40:15;101390.81;;;12.22;49.65
18784;BME280;9520;50.954;6.968;2024-02-28T01:40:38;101390.78;;;12.26;49.50
18784;BME280;9520;50.954;6.968;2024-02-28T01:40:59;101397.78;;;12.29;49.44
18784;BME280;9520;50.954;6.968;2024-02-28T01:41:21;101387.19;;;12.32;49.54
18784;BME280;9520;50.954;6.968;2024-02-28T01:41:50;101385.44;;;12.32;49.59
18784;BME280;9520;50.954;6.968;2024-02-28T01:42:13;101388.03;;;12.37;49.42
18784;BME280;9520;50.954;6.968;2024-02-28T01:42:36;101395.91;;;12.38;49.42
18784;BME280;9520;50.954;6.968;2024-02-28T01:43:02;101380.16;;;12.31;49.37
18784;BME280;9520;50.954;6.968;2024-02-28T01:43:24;101395.91;;;12.41;49.34
18784;BME280;9520;50.954;6.968;2024-02-28T01:43:46;101389.72;;;12.41;49.23
18784;BME280;9520;50.954;6.968;2024-02-28T01:44:07;101397.63;;;12.45;49.08
18784;BME280;9520;50.954;6.968;2024-02-28T01:44:30;101400.25;;;12.47;49.27
18784;BME280;9520;50.954;6.968;2024-02-28T01:44:52;101395.84;;;12.47;49.33
18784;BME280;9520;50.954;6.968;2024-02-28T01:45:14;101396.72;;;12.48;49.37
18784;BME280;9520;50.954;6.968;2024-02-28T01:45:36;101399.31;;;12.49;49.30
18784;BME280;9520;50.954;6.968;2024-02-28T01:46:00;101395.78;;;12.52;49.31
18784;BME280;9520;50.954;6.968;2024-02-28T01:46:25;101399.25;;;12.55;49.17
18784;BME280;9520;50.954;6.968;2024-02-28T01:46:47;101371.16;;;12.47;49.14
18784;BME280;9520;50.954;6.968;2024-02-28T01:47:09;101392.16;;;12.59;49.05
18784;BME280;9520;50.954;6.968;2024-02-28T01:47:31;101394.78;;;12.61;49.03
18784;BME280;9520;50.954;6.968;2024-02-28T01:47:53;101374.63;;;12.49;49.09
18784;BME280;9520;50.954;6.968;2024-02-28T01:48:15;101399.16;;;12.65;49.09
18784;BME280;9520;50.954;6.968;2024-02-28T01:48:38;101380.75;;;12.55;49.13
18784;BME280;9520;50.954;6.968;2024-02-28T01:49:00;101374.56;;;12.53;49.00
18784;BME280;9520;50.954;6.968;2024-02-28T01:49:23;101380.69;;;12.59;49.05
18784;BME280;9520;50.954;6.968;2024-02-28T01:49:46;101397.34;;;12.68;48.96
18784;BME280;9520;50.954;6.968;2024-02-28T01:50:09;101392.03;;;12.70;48.92
18784;BME280;9520;50.954;6.968;2024-02-28T01:50:33;101395.56;;;12.70;49.10
18784;BME280;9520;50.954;6.968;2024-02-28T01:50:55;101400.84;;;12.70;49.09
18784;BME280;9520;50.954;6.968;2024-02-28T01:51:17;101405.28;;;12.68;48.90
18784;BME280;9520;50.954;6.968;2024-02-28T01:51:39;101393.78;;;12.69;48.84
18784;BME280;9520;50.954;6.968;2024-02-28T01:52:02;101401.75;;;12.69;48.91
18784;BME280;9520;50.954;6.968;2024-02-28T01:52:25;101402.63;;;12.68;49.00
18784;BME280;9520;50.954;6.968;2024-02-28T01:52:47;101399.13;;;12.68;48.89
18784;BME280;9520;50.954;6.968;2024-02-28T01:53:10;101398.19;;;12.70;49.03
18784;BME280;9520;50.954;6.968;2024-02-28T01:53:33;101402.63;;;12.70;49.03
18784;BME280;9520;50.954;6.968;2024-02-28T01:53:56;101401.72;;;12.72;49.02
18784;BME280;9520;50.954;6.968;2024-02-28T01:54:18;101398.16;;;12.75;48.85
18784;BME280;9520;50.954;6.968;2024-02-28T01:54:41;101401.66;;;12.75;48.77
18784;BME280;9520;50.954;6.968;2024-02-28T01:55:05;101397.25;;;12.74;48.83
18784;BME280;9520;50.954;6.968;2024-02-28T01:55:27;101400.75;;;12.78;48.80
18784;BME280;9520;50.954;6.968;2024-02-28T01:55:49;101392.03;;;12.70;48.65
18784;BME280;9520;50.954;6.968;2024-02-28T01:56:11;101404.25;;;12.78;48.83
18784;BME280;9520;50.954;6.968;2024-02-28T01:56:35;101406.00;;;12.81;48.72
18784;BME280;9520;50.954;6.968;2024-02-28T01:56:57;101398.03;;;12.84;48.70
18784;BME280;9520;50.954;6.968;2024-02-28T02:10:17;101414.00;;;12.76;48.76
18784;BME280;9520;50.954;6.968;2024-02-28T02:11:05;101401.72;;;12.72;48.65
18784;BME280;9520;50.954;6.968;2024-02-28T02:11:51;101398.19;;;12.72;48.72
18784;BME280;9520;50.954;6.968;2024-02-28T02:12:14;101399.06;;;12.72;48.91
18784;BME280;9520;50.954;6.968;2024-02-28T02:12:36;101400.84;;;12.72;48.73
18784;BME280;9520;50.954;6.968;2024-02-28T02:13:04;101386.81;;;12.64;48.71
18784;BME280;9520;50.954;6.968;2024-02-28T02:13:25;101395.56;;;12.70;48.81
18784;BME280;9520;50.954;6.968;2024-02-28T02:13:48;101409.63;;;12.74;48.88
18784;BME280;9520;50.954;6.968;2024-02-28T02:14:10;101399.03;;;12.74;48.94
18784;BME280;9520;50.954;6.968;2024-02-28T02:14:33;101401.66;;;12.75;48.90
18784;BME280;9520;50.954;6.968;2024-02-28T02:14:54;101403.44;;;12.76;48.87
18784;BME280;9520;50.954;6.968;2024-02-28T02:15:16;101393.66;;;12.80;48.90
18784;BME280;9520;50.954;6.968;2024-02-28T02:15:38;101406.06;;;12.76;48.93
18784;BME280;9520;50.954;6.968;2024-02-28T02:16:00;101397.13;;;12.83;49.00
18784;BME280;9520;50.954;6.968;2024-02-28T02:16:22;101384.91;;;12.76;48.86
18784;BME280;9520;50.954;6.968;2024-02-28T02:16:47;101392.78;;;12.82;48.93
18784;BME280;9520;50.954;6.968;2024-02-28T02:17:09;101406.78;;;12.90;48.75
18784;BME280;9520;50.954;6.968;2024-02-28T02:17:30;101403.25;;;12.91;48.75
18784;BME280;9520;50.954;6.968;2024-02-28T02:17:53;101398.78;;;12.93;48.63
18784;BME280;9520;50.954;6.968;2024-02-28T02:18:15;101407.59;;;12.95;48.63
18784;BME280;9520;50.954;6.968;2024-02-28T02:18:36;101391.78;;;12.89;48.60
18784;BME280;9520;50.954;6.968;2024-02-28T02:18:58;101398.72;;;12.98;48.59
18784;BME280;9520;50.954;6.968;2024-02-28T02:19:20;101395.28;;;12.91;48.59
18784;BME280;9520;50.954;6.968;2024-02-28T02:19:42;101405.75;;;13.01;48.62
18784;BME280;9520;50.954;6.968;2024-02-28T02:20:06;101403.09;;;13.02;48.41
18784;BME280;9520;50.954;6.968;2024-02-28T02:20:32;101396.94;;;13.00;48.42
18784;BME280;9520;50.954;6.968;2024-02-28T02:20:58;101409.25;;;13.03;48.46